Bloomingburg, New York
Current Conditions -  °F | °C
As of 1:04 AM on Thursday 23 Oct 2014 (Local Time) from KMGJ Reporting Station
Overcast Overcast  
Wind Chill: 50°   Ceiling: 4200
Heat Index: 50°   Visibility: 10mi
Dew Point: 46°   Wind: 17mph
Humidity: 86%   Direction: 30°NNE
Pressure: 29.81"   Gusts: 29mph
Location:  41.55°N, 74.44°W
Report Text: KMGJ 230504Z AUTO 03015G25KT 10SM FEW018 SCT028 OVC042 10/08 A2981 RMK AO2 T01000078 TSNO
Loading
Personal Weather Stations






























Interactive Weather Map
Tropical Storm Tracking
New forecast layout! Learn more

10-Day Weather Forecast

Advertisements
Track Severe Weather on mobile